KCRX/CRX METAR and TAF weather

Enter ICAO airport designator
Station Type Date Time Source
KCRX METAR 2022/06/26 08:15 UTC NOAA

KCRX 260815Z AUTO 00000KT 10SM CLR 24/21 A3004 RMK AO2


Station Type Date Time Source
KCRX Decoded METAR 2022/06/26 08:15 UTC NOAA

Station name not available
Jun 26, 2022 - 04:15 AM EDT / 2022.06.26 0815 UTC
Wind: Calm:0
Visibility: 10 mile(s):0
Sky conditions: clear
Temperature: 75 F (24 C)
Dew Point: 69 F (21 C)
Relative Humidity: 83%
Pressure (altimeter): 30.04 in. Hg (1017 hPa)
ob: KCRX 260815Z AUTO 00000KT 10SM CLR 24/21 A3004 RMK AO2
cycle: 8

Station Type Date Time Source
KCRX TAF UTC NOAA

Error!

Example: see airport list